sensor_id;sensor_type;location;lat;lon;timestamp;P1;durP1;ratioP1;P2;durP2;ratioP2
21297;SDS011;10808;48.010;11.326;2022-08-30T00:00:57;9.67;;;8.30;;
21297;SDS011;10808;48.010;11.326;2022-08-30T00:03:38;9.82;;;8.82;;
21297;SDS011;10808;48.010;11.326;2022-08-30T00:06:10;9.43;;;8.52;;
21297;SDS011;10808;48.010;11.326;2022-08-30T00:08:37;9.43;;;8.53;;
21297;SDS011;10808;48.010;11.326;2022-08-30T00:11:06;15.35;;;8.90;;
21297;SDS011;10808;48.010;11.326;2022-08-30T00:13:35;9.73;;;8.70;;
21297;SDS011;10808;48.010;11.326;2022-08-30T00:16:02;9.95;;;8.90;;
21297;SDS011;10808;48.010;11.326;2022-08-30T00:18:29;9.90;;;8.77;;
21297;SDS011;10808;48.010;11.326;2022-08-30T00:20:55;10.45;;;8.65;;
21297;SDS011;10808;48.010;11.326;2022-08-30T00:23:22;10.43;;;9.30;;
21297;SDS011;10808;48.010;11.326;2022-08-30T00:25:48;10.07;;;9.00;;
21297;SDS011;10808;48.010;11.326;2022-08-30T00:28:14;10.75;;;8.57;;
21297;SDS011;10808;48.010;11.326;2022-08-30T00:30:44;11.50;;;8.52;;
21297;SDS011;10808;48.010;11.326;2022-08-30T00:33:11;12.57;;;8.80;;
21297;SDS011;10808;48.010;11.326;2022-08-30T00:35:38;11.75;;;9.35;;
21297;SDS011;10808;48.010;11.326;2022-08-30T00:38:05;10.00;;;8.70;;
21297;SDS011;10808;48.010;11.326;2022-08-30T00:40:32;11.00;;;9.40;;
21297;SDS011;10808;48.010;11.326;2022-08-30T00:42:59;11.43;;;9.43;;
21297;SDS011;10808;48.010;11.326;2022-08-30T00:45:27;9.97;;;8.93;;
21297;SDS011;10808;48.010;11.326;2022-08-30T00:47:56;10.35;;;9.00;;
21297;SDS011;10808;48.010;11.326;2022-08-30T00:50:25;11.20;;;9.68;;
21297;SDS011;10808;48.010;11.326;2022-08-30T00:52:57;10.70;;;9.40;;
21297;SDS011;10808;48.010;11.326;2022-08-30T00:55:25;9.30;;;8.40;;
21297;SDS011;10808;48.010;11.326;2022-08-30T00:57:53;9.70;;;8.63;;
21297;SDS011;10808;48.010;11.326;2022-08-30T01:00:23;10.18;;;8.63;;
21297;SDS011;10808;48.010;11.326;2022-08-30T01:02:50;10.10;;;8.38;;
21297;SDS011;10808;48.010;11.326;2022-08-30T01:05:16;9.18;;;8.27;;
21297;SDS011;10808;48.010;11.326;2022-08-30T01:07:42;9.37;;;8.20;;
21297;SDS011;10808;48.010;11.326;2022-08-30T01:10:09;11.90;;;8.77;;
21297;SDS011;10808;48.010;11.326;2022-08-30T01:12:38;10.63;;;8.18;;
21297;SDS011;10808;48.010;11.326;2022-08-30T01:15:06;11.05;;;8.10;;
21297;SDS011;10808;48.010;11.326;2022-08-30T01:17:33;9.00;;;8.13;;
21297;SDS011;10808;48.010;11.326;2022-08-30T01:20:05;10.68;;;8.30;;
21297;SDS011;10808;48.010;11.326;2022-08-30T01:22:39;9.40;;;8.27;;
21297;SDS011;10808;48.010;11.326;2022-08-30T01:25:13;9.82;;;8.25;;
21297;SDS011;10808;48.010;11.326;2022-08-30T01:27:46;10.82;;;8.63;;
21297;SDS011;10808;48.010;11.326;2022-08-30T01:30:18;9.60;;;8.20;;
21297;SDS011;10808;48.010;11.326;2022-08-30T01:32:45;10.02;;;8.35;;
21297;SDS011;10808;48.010;11.326;2022-08-30T01:35:14;10.75;;;8.30;;
21297;SDS011;10808;48.010;11.326;2022-08-30T01:37:42;10.80;;;8.60;;
21297;SDS011;10808;48.010;11.326;2022-08-30T01:40:12;10.52;;;8.63;;
21297;SDS011;10808;48.010;11.326;2022-08-30T01:42:39;9.05;;;8.15;;
21297;SDS011;10808;48.010;11.326;2022-08-30T01:45:06;9.35;;;8.43;;
21297;SDS011;10808;48.010;11.326;2022-08-30T01:47:34;9.10;;;8.17;;
21297;SDS011;10808;48.010;11.326;2022-08-30T01:50:00;9.32;;;8.13;;
21297;SDS011;10808;48.010;11.326;2022-08-30T01:52:27;11.45;;;8.05;;
21297;SDS011;10808;48.010;11.326;2022-08-30T01:54:53;9.07;;;8.18;;
21297;SDS011;10808;48.010;11.326;2022-08-30T01:57:20;8.98;;;7.75;;
21297;SDS011;10808;48.010;11.326;2022-08-30T01:59:48;9.65;;;8.65;;
21297;SDS011;10808;48.010;11.326;2022-08-30T02:02:22;9.10;;;8.20;;
21297;SDS011;10808;48.010;11.326;2022-08-30T02:04:51;9.45;;;7.97;;
21297;SDS011;10808;48.010;11.326;2022-08-30T02:07:18;11.07;;;8.18;;
21297;SDS011;10808;48.010;11.326;2022-08-30T02:09:45;8.63;;;7.72;;
21297;SDS011;10808;48.010;11.326;2022-08-30T02:12:12;8.70;;;7.80;;
21297;SDS011;10808;48.010;11.326;2022-08-30T02:14:38;8.98;;;8.07;;
21297;SDS011;10808;48.010;11.326;2022-08-30T02:17:05;8.90;;;8.00;;
21297;SDS011;10808;48.010;11.326;2022-08-30T02:19:33;8.95;;;8.05;;
21297;SDS011;10808;48.010;11.326;2022-08-30T02:21:59;10.40;;;8.52;;
21297;SDS011;10808;48.010;11.326;2022-08-30T02:24:25;9.38;;;8.48;;
21297;SDS011;10808;48.010;11.326;2022-08-30T02:26:51;9.95;;;8.00;;
21297;SDS011;10808;48.010;11.326;2022-08-30T02:29:18;10.65;;;7.70;;
21297;SDS011;10808;48.010;11.326;2022-08-30T02:31:45;9.38;;;8.45;;
21297;SDS011;10808;48.010;11.326;2022-08-30T02:34:11;9.60;;;8.60;;
21297;SDS011;10808;48.010;11.326;2022-08-30T02:36:38;10.70;;;8.60;;
21297;SDS011;10808;48.010;11.326;2022-08-30T02:39:06;11.50;;;8.30;;
21297;SDS011;10808;48.010;11.326;2022-08-30T02:41:33;9.48;;;8.38;;
21297;SDS011;10808;48.010;11.326;2022-08-30T02:43:59;9.70;;;8.70;;
21297;SDS011;10808;48.010;11.326;2022-08-30T02:46:26;11.60;;;8.70;;
21297;SDS011;10808;48.010;11.326;2022-08-30T02:48:52;9.77;;;8.77;;
21297;SDS011;10808;48.010;11.326;2022-08-30T02:51:18;10.10;;;8.82;;
21297;SDS011;10808;48.010;11.326;2022-08-30T02:53:45;9.90;;;8.90;;
21297;SDS011;10808;48.010;11.326;2022-08-30T02:56:11;10.38;;;9.27;;
21297;SDS011;10808;48.010;11.326;2022-08-30T02:58:39;13.85;;;8.82;;
21297;SDS011;10808;48.010;11.326;2022-08-30T03:01:07;10.10;;;9.00;;
21297;SDS011;10808;48.010;11.326;2022-08-30T03:03:35;9.98;;;8.98;;
21297;SDS011;10808;48.010;11.326;2022-08-30T03:06:01;11.63;;;9.23;;
21297;SDS011;10808;48.010;11.326;2022-08-30T03:08:30;10.38;;;9.00;;
21297;SDS011;10808;48.010;11.326;2022-08-30T03:10:58;9.40;;;8.40;;
21297;SDS011;10808;48.010;11.326;2022-08-30T03:13:25;9.70;;;8.55;;
21297;SDS011;10808;48.010;11.326;2022-08-30T03:15:51;9.52;;;8.63;;
21297;SDS011;10808;48.010;11.326;2022-08-30T03:18:17;10.00;;;9.00;;
21297;SDS011;10808;48.010;11.326;2022-08-30T03:20:45;10.82;;;9.50;;
21297;SDS011;10808;48.010;11.326;2022-08-30T03:23:13;11.48;;;9.25;;
21297;SDS011;10808;48.010;11.326;2022-08-30T03:25:40;10.50;;;8.68;;
21297;SDS011;10808;48.010;11.326;2022-08-30T03:28:06;11.27;;;9.30;;
21297;SDS011;10808;48.010;11.326;2022-08-30T03:30:32;9.65;;;8.65;;
21297;SDS011;10808;48.010;11.326;2022-08-30T03:32:59;9.73;;;8.75;;
21297;SDS011;10808;48.010;11.326;2022-08-30T03:35:25;11.43;;;9.07;;
21297;SDS011;10808;48.010;11.326;2022-08-30T03:37:52;9.73;;;8.75;;
21297;SDS011;10808;48.010;11.326;2022-08-30T03:40:19;11.00;;;8.95;;
21297;SDS011;10808;48.010;11.326;2022-08-30T03:42:46;10.98;;;9.05;;
21297;SDS011;10808;48.010;11.326;2022-08-30T03:45:14;10.13;;;9.13;;
21297;SDS011;10808;48.010;11.326;2022-08-30T03:47:42;9.45;;;8.15;;
21297;SDS011;10808;48.010;11.326;2022-08-30T03:50:08;9.88;;;8.88;;
21297;SDS011;10808;48.010;11.326;2022-08-30T03:52:36;9.77;;;8.80;;
21297;SDS011;10808;48.010;11.326;2022-08-30T03:55:02;10.98;;;9.20;;
21297;SDS011;10808;48.010;11.326;2022-08-30T03:57:29;10.20;;;8.57;;
21297;SDS011;10808;48.010;11.326;2022-08-30T03:59:56;10.00;;;9.00;;
21297;SDS011;10808;48.010;11.326;2022-08-30T04:02:23;10.40;;;8.85;;
21297;SDS011;10808;48.010;11.326;2022-08-30T04:04:49;10.02;;;9.02;;
21297;SDS011;10808;48.010;11.326;2022-08-30T04:07:15;9.77;;;8.68;;
21297;SDS011;10808;48.010;11.326;2022-08-30T04:09:41;10.13;;;9.07;;
21297;SDS011;10808;48.010;11.326;2022-08-30T04:12:07;11.02;;;8.82;;
21297;SDS011;10808;48.010;11.326;2022-08-30T04:14:33;10.57;;;9.10;;
21297;SDS011;10808;48.010;11.326;2022-08-30T04:16:59;10.10;;;9.10;;
21297;SDS011;10808;48.010;11.326;2022-08-30T04:19:25;10.57;;;9.30;;
21297;SDS011;10808;48.010;11.326;2022-08-30T04:21:51;14.75;;;10.80;;
21297;SDS011;10808;48.010;11.326;2022-08-30T04:24:18;12.73;;;9.63;;
21297;SDS011;10808;48.010;11.326;2022-08-30T04:26:44;11.18;;;9.43;;
21297;SDS011;10808;48.010;11.326;2022-08-30T04:29:11;12.82;;;10.32;;
21297;SDS011;10808;48.010;11.326;2022-08-30T04:31:41;18.45;;;12.75;;
21297;SDS011;10808;48.010;11.326;2022-08-30T04:34:08;20.77;;;13.80;;
21297;SDS011;10808;48.010;11.326;2022-08-30T04:36:35;19.00;;;14.40;;
21297;SDS011;10808;48.010;11.326;2022-08-30T04:39:01;23.52;;;14.45;;
21297;SDS011;10808;48.010;11.326;2022-08-30T04:41:28;25.13;;;15.27;;
21297;SDS011;10808;48.010;11.326;2022-08-30T04:43:54;22.10;;;14.70;;
21297;SDS011;10808;48.010;11.326;2022-08-30T04:46:20;23.55;;;13.90;;
21297;SDS011;10808;48.010;11.326;2022-08-30T04:48:46;22.55;;;15.30;;
21297;SDS011;10808;48.010;11.326;2022-08-30T04:51:15;24.17;;;16.48;;
21297;SDS011;10808;48.010;11.326;2022-08-30T04:53:42;21.27;;;14.73;;
21297;SDS011;10808;48.010;11.326;2022-08-30T04:56:10;20.05;;;14.10;;
21297;SDS011;10808;48.010;11.326;2022-08-30T04:58:44;20.48;;;14.30;;
21297;SDS011;10808;48.010;11.326;2022-08-30T05:01:15;20.50;;;14.75;;
21297;SDS011;10808;48.010;11.326;2022-08-30T05:03:47;24.83;;;15.98;;
21297;SDS011;10808;48.010;11.326;2022-08-30T05:06:14;19.90;;;14.48;;
21297;SDS011;10808;48.010;11.326;2022-08-30T05:08:41;21.75;;;14.73;;
21297;SDS011;10808;48.010;11.326;2022-08-30T05:11:07;19.20;;;14.17;;
21297;SDS011;10808;48.010;11.326;2022-08-30T05:13:35;19.05;;;13.93;;
21297;SDS011;10808;48.010;11.326;2022-08-30T05:16:02;17.40;;;13.80;;
21297;SDS011;10808;48.010;11.326;2022-08-30T05:18:30;16.27;;;13.13;;
21297;SDS011;10808;48.010;11.326;2022-08-30T05:21:03;15.35;;;12.65;;
21297;SDS011;10808;48.010;11.326;2022-08-30T05:23:29;15.43;;;12.40;;
21297;SDS011;10808;48.010;11.326;2022-08-30T05:25:55;14.30;;;12.48;;
21297;SDS011;10808;48.010;11.326;2022-08-30T05:28:22;12.43;;;11.13;;
21297;SDS011;10808;48.010;11.326;2022-08-30T05:30:48;12.15;;;10.60;;
21297;SDS011;10808;48.010;11.326;2022-08-30T05:33:14;11.05;;;9.85;;
21297;SDS011;10808;48.010;11.326;2022-08-30T05:35:40;12.27;;;10.98;;
21297;SDS011;10808;48.010;11.326;2022-08-30T05:38:06;11.13;;;9.93;;
21297;SDS011;10808;48.010;11.326;2022-08-30T05:40:32;11.55;;;10.40;;
21297;SDS011;10808;48.010;11.326;2022-08-30T05:42:59;11.82;;;10.63;;
21297;SDS011;10808;48.010;11.326;2022-08-30T05:45:25;11.60;;;9.57;;
21297;SDS011;10808;48.010;11.326;2022-08-30T05:47:51;13.50;;;11.57;;
21297;SDS011;10808;48.010;11.326;2022-08-30T05:50:17;15.25;;;12.15;;
21297;SDS011;10808;48.010;11.326;2022-08-30T05:52:43;13.27;;;11.55;;
21297;SDS011;10808;48.010;11.326;2022-08-30T05:55:10;14.77;;;11.20;;
21297;SDS011;10808;48.010;11.326;2022-08-30T05:57:37;12.20;;;10.90;;
21297;SDS011;10808;48.010;11.326;2022-08-30T06:00:06;14.30;;;12.05;;
21297;SDS011;10808;48.010;11.326;2022-08-30T06:02:35;14.65;;;12.18;;
21297;SDS011;10808;48.010;11.326;2022-08-30T06:05:02;13.90;;;11.35;;
21297;SDS011;10808;48.010;11.326;2022-08-30T06:07:29;12.27;;;10.98;;
21297;SDS011;10808;48.010;11.326;2022-08-30T06:09:55;12.10;;;10.85;;
21297;SDS011;10808;48.010;11.326;2022-08-30T06:12:21;12.15;;;10.90;;
21297;SDS011;10808;48.010;11.326;2022-08-30T06:14:47;12.10;;;10.80;;
21297;SDS011;10808;48.010;11.326;2022-08-30T06:17:13;12.35;;;11.02;;
21297;SDS011;10808;48.010;11.326;2022-08-30T06:19:39;11.50;;;10.30;;
21297;SDS011;10808;48.010;11.326;2022-08-30T06:22:05;12.18;;;10.98;;
21297;SDS011;10808;48.010;11.326;2022-08-30T06:24:31;11.60;;;10.40;;
21297;SDS011;10808;48.010;11.326;2022-08-30T06:27:00;13.00;;;10.70;;
21297;SDS011;10808;48.010;11.326;2022-08-30T06:29:27;10.90;;;9.80;;
21297;SDS011;10808;48.010;11.326;2022-08-30T06:31:55;11.20;;;10.05;;
21297;SDS011;10808;48.010;11.326;2022-08-30T06:34:22;12.75;;;10.27;;
21297;SDS011;10808;48.010;11.326;2022-08-30T06:36:48;12.23;;;9.70;;
21297;SDS011;10808;48.010;11.326;2022-08-30T06:39:14;11.45;;;9.60;;
21297;SDS011;10808;48.010;11.326;2022-08-30T06:41:40;10.73;;;9.63;;
21297;SDS011;10808;48.010;11.326;2022-08-30T06:44:06;10.00;;;9.00;;
21297;SDS011;10808;48.010;11.326;2022-08-30T06:46:34;10.00;;;9.10;;
21297;SDS011;10808;48.010;11.326;2022-08-30T06:49:02;11.35;;;8.90;;
21297;SDS011;10808;48.010;11.326;2022-08-30T06:51:31;10.32;;;8.85;;
21297;SDS011;10808;48.010;11.326;2022-08-30T06:54:00;9.40;;;8.10;;
21297;SDS011;10808;48.010;11.326;2022-08-30T06:56:27;9.10;;;8.20;;
21297;SDS011;10808;48.010;11.326;2022-08-30T06:58:53;8.57;;;7.77;;
21297;SDS011;10808;48.010;11.326;2022-08-30T07:01:21;8.55;;;7.70;;
21297;SDS011;10808;48.010;11.326;2022-08-30T07:03:49;8.73;;;7.82;;
21297;SDS011;10808;48.010;11.326;2022-08-30T07:06:15;10.38;;;7.60;;
21297;SDS011;10808;48.010;11.326;2022-08-30T07:08:43;8.57;;;7.65;;
21297;SDS011;10808;48.010;11.326;2022-08-30T07:11:10;8.65;;;7.50;;
21297;SDS011;10808;48.010;11.326;2022-08-30T07:13:36;10.63;;;7.70;;
21297;SDS011;10808;48.010;11.326;2022-08-30T07:16:09;11.40;;;7.57;;
21297;SDS011;10808;48.010;11.326;2022-08-30T07:18:37;8.32;;;7.20;;
21297;SDS011;10808;48.010;11.326;2022-08-30T07:21:19;8.27;;;7.20;;
21297;SDS011;10808;48.010;11.326;2022-08-30T07:24:08;7.68;;;6.80;;
21297;SDS011;10808;48.010;11.326;2022-08-30T07:26:36;8.13;;;7.13;;
21297;SDS011;10808;48.010;11.326;2022-08-30T07:29:06;7.70;;;6.83;;
21297;SDS011;10808;48.010;11.326;2022-08-30T07:31:33;7.60;;;6.65;;
21297;SDS011;10808;48.010;11.326;2022-08-30T07:34:01;7.53;;;6.78;;
21297;SDS011;10808;48.010;11.326;2022-08-30T07:36:28;8.25;;;6.60;;
21297;SDS011;10808;48.010;11.326;2022-08-30T07:38:54;6.88;;;6.18;;
21297;SDS011;10808;48.010;11.326;2022-08-30T07:41:21;7.83;;;6.37;;
21297;SDS011;10808;48.010;11.326;2022-08-30T07:43:51;8.80;;;6.93;;
21297;SDS011;10808;48.010;11.326;2022-08-30T07:46:18;9.38;;;6.78;;
21297;SDS011;10808;48.010;11.326;2022-08-30T07:48:45;8.25;;;6.65;;
21297;SDS011;10808;48.010;11.326;2022-08-30T07:51:14;7.35;;;6.43;;
21297;SDS011;10808;48.010;11.326;2022-08-30T07:53:42;7.27;;;6.00;;
21297;SDS011;10808;48.010;11.326;2022-08-30T07:56:08;9.23;;;6.40;;
21297;SDS011;10808;48.010;11.326;2022-08-30T07:58:35;6.82;;;6.13;;
21297;SDS011;10808;48.010;11.326;2022-08-30T08:01:03;7.22;;;6.53;;
21297;SDS011;10808;48.010;11.326;2022-08-30T08:03:30;6.45;;;5.85;;
21297;SDS011;10808;48.010;11.326;2022-08-30T08:05:56;6.63;;;5.93;;
21297;SDS011;10808;48.010;11.326;2022-08-30T08:08:25;8.23;;;6.40;;
21297;SDS011;10808;48.010;11.326;2022-08-30T08:10:51;7.30;;;6.40;;
21297;SDS011;10808;48.010;11.326;2022-08-30T08:13:17;7.00;;;6.40;;
21297;SDS011;10808;48.010;11.326;2022-08-30T08:15:43;7.32;;;6.30;;
21297;SDS011;10808;48.010;11.326;2022-08-30T08:18:09;7.25;;;6.22;;
21297;SDS011;10808;48.010;11.326;2022-08-30T08:20:35;7.78;;;6.35;;
21297;SDS011;10808;48.010;11.326;2022-08-30T08:23:02;6.63;;;5.97;;
21297;SDS011;10808;48.010;11.326;2022-08-30T08:25:28;7.45;;;6.47;;
21297;SDS011;10808;48.010;11.326;2022-08-30T08:27:54;6.55;;;5.97;;
21297;SDS011;10808;48.010;11.326;2022-08-30T08:30:21;6.43;;;5.83;;
21297;SDS011;10808;48.010;11.326;2022-08-30T08:32:48;6.50;;;5.85;;
21297;SDS011;10808;48.010;11.326;2022-08-30T08:35:16;6.72;;;6.05;;
21297;SDS011;10808;48.010;11.326;2022-08-30T08:37:43;6.80;;;6.10;;
21297;SDS011;10808;48.010;11.326;2022-08-30T08:40:12;6.00;;;5.25;;
21297;SDS011;10808;48.010;11.326;2022-08-30T08:48:51;6.75;;;5.22;;
21297;SDS011;10808;48.010;11.326;2022-08-30T08:51:26;6.82;;;5.35;;
21297;SDS011;10808;48.010;11.326;2022-08-30T08:54:15;6.70;;;5.88;;
21297;SDS011;10808;48.010;11.326;2022-08-30T08:56:44;6.35;;;5.32;;
21297;SDS011;10808;48.010;11.326;2022-08-30T08:59:10;6.10;;;5.50;;
21297;SDS011;10808;48.010;11.326;2022-08-30T09:01:39;6.65;;;5.53;;
21297;SDS011;10808;48.010;11.326;2022-08-30T09:04:09;5.80;;;5.00;;
21297;SDS011;10808;48.010;11.326;2022-08-30T09:06:52;5.95;;;5.20;;
21297;SDS011;10808;48.010;11.326;2022-08-30T09:09:26;5.13;;;4.63;;
21297;SDS011;10808;48.010;11.326;2022-08-30T09:11:56;5.15;;;4.65;;
21297;SDS011;10808;48.010;11.326;2022-08-30T09:14:27;5.70;;;4.63;;
21297;SDS011;10808;48.010;11.326;2022-08-30T09:16:58;5.85;;;4.45;;
21297;SDS011;10808;48.010;11.326;2022-08-30T09:24:56;5.00;;;4.55;;
21297;SDS011;10808;48.010;11.326;2022-08-30T09:27:38;6.45;;;4.63;;
21297;SDS011;10808;48.010;11.326;2022-08-30T09:30:25;5.00;;;4.50;;
21297;SDS011;10808;48.010;11.326;2022-08-30T09:32:59;4.60;;;4.15;;
21297;SDS011;10808;48.010;11.326;2022-08-30T09:35:33;5.43;;;4.70;;
21297;SDS011;10808;48.010;11.326;2022-08-30T09:38:16;5.13;;;4.50;;
21297;SDS011;10808;48.010;11.326;2022-08-30T09:40:58;6.88;;;4.40;;
21297;SDS011;10808;48.010;11.326;2022-08-30T09:43:30;6.30;;;4.47;;
21297;SDS011;10808;48.010;11.326;2022-08-30T09:48:37;5.20;;;4.30;;
21297;SDS011;10808;48.010;11.326;2022-08-30T09:53:36;5.25;;;4.63;;
21297;SDS011;10808;48.010;11.326;2022-08-30T09:56:36;4.70;;;4.30;;
21297;SDS011;10808;48.010;11.326;2022-08-30T09:59:21;6.20;;;4.75;;
21297;SDS011;10808;48.010;11.326;2022-08-30T10:02:28;5.78;;;4.57;;
21297;SDS011;10808;48.010;11.326;2022-08-30T10:10:08;5.90;;;4.30;;
21297;SDS011;10808;48.010;11.326;2022-08-30T10:13:00;6.28;;;4.38;;
21297;SDS011;10808;48.010;11.326;2022-08-30T10:15:50;5.63;;;4.35;;
21297;SDS011;10808;48.010;11.326;2022-08-30T10:18:27;4.75;;;4.15;;
21297;SDS011;10808;48.010;11.326;2022-08-30T10:23:40;6.27;;;4.80;;
21297;SDS011;10808;48.010;11.326;2022-08-30T10:32:00;4.57;;;4.17;;
21297;SDS011;10808;48.010;11.326;2022-08-30T10:34:41;4.40;;;4.00;;
21297;SDS011;10808;48.010;11.326;2022-08-30T10:37:13;7.88;;;4.60;;
21297;SDS011;10808;48.010;11.326;2022-08-30T10:39:50;4.60;;;4.20;;
21297;SDS011;10808;48.010;11.326;2022-08-30T10:42:21;7.57;;;4.50;;
21297;SDS011;10808;48.010;11.326;2022-08-30T10:45:04;6.13;;;4.10;;
21297;SDS011;10808;48.010;11.326;2022-08-30T10:47:40;5.50;;;3.88;;
21297;SDS011;10808;48.010;11.326;2022-08-30T10:50:17;7.43;;;3.83;;
21297;SDS011;10808;48.010;11.326;2022-08-30T10:55:25;6.25;;;4.22;;
21297;SDS011;10808;48.010;11.326;2022-08-30T10:57:59;4.65;;;4.10;;
21297;SDS011;10808;48.010;11.326;2022-08-30T11:00:28;5.00;;;4.50;;
21297;SDS011;10808;48.010;11.326;2022-08-30T11:03:09;6.90;;;4.20;;
21297;SDS011;10808;48.010;11.326;2022-08-30T11:05:59;5.40;;;4.30;;
21297;SDS011;10808;48.010;11.326;2022-08-30T11:08:56;4.77;;;4.00;;
21297;SDS011;10808;48.010;11.326;2022-08-30T11:11:38;5.07;;;3.80;;
21297;SDS011;10808;48.010;11.326;2022-08-30T11:14:16;4.25;;;3.80;;
21297;SDS011;10808;48.010;11.326;2022-08-30T11:16:44;4.40;;;4.00;;
21297;SDS011;10808;48.010;11.326;2022-08-30T11:19:15;4.22;;;3.83;;
21297;SDS011;10808;48.010;11.326;2022-08-30T11:21:46;4.70;;;3.80;;
21297;SDS011;10808;48.010;11.326;2022-08-30T11:24:17;5.07;;;4.00;;
21297;SDS011;10808;48.010;11.326;2022-08-30T11:31:55;5.78;;;3.85;;
21297;SDS011;10808;48.010;11.326;2022-08-30T11:39:57;4.50;;;4.10;;
21297;SDS011;10808;48.010;11.326;2022-08-30T11:42:29;4.43;;;4.00;;
21297;SDS011;10808;48.010;11.326;2022-08-30T11:47:47;4.35;;;3.92;;
21297;SDS011;10808;48.010;11.326;2022-08-30T11:50:20;4.22;;;3.80;;
21297;SDS011;10808;48.010;11.326;2022-08-30T11:52:58;4.30;;;3.88;;
21297;SDS011;10808;48.010;11.326;2022-08-30T11:58:31;4.72;;;3.97;;
21297;SDS011;10808;48.010;11.326;2022-08-30T12:03:38;4.82;;;3.88;;
21297;SDS011;10808;48.010;11.326;2022-08-30T12:06:07;4.03;;;3.63;;
21297;SDS011;10808;48.010;11.326;2022-08-30T12:08:39;5.30;;;4.03;;
21297;SDS011;10808;48.010;11.326;2022-08-30T12:18:41;4.25;;;3.90;;
21297;SDS011;10808;48.010;11.326;2022-08-30T12:26:35;4.65;;;3.85;;
21297;SDS011;10808;48.010;11.326;2022-08-30T12:31:55;5.90;;;3.78;;
21297;SDS011;10808;48.010;11.326;2022-08-30T12:34:34;5.80;;;4.03;;
21297;SDS011;10808;48.010;11.326;2022-08-30T12:42:45;5.63;;;4.10;;
21297;SDS011;10808;48.010;11.326;2022-08-30T12:45:16;5.38;;;4.20;;
21297;SDS011;10808;48.010;11.326;2022-08-30T12:47:51;4.63;;;4.10;;
21297;SDS011;10808;48.010;11.326;2022-08-30T12:50:33;4.60;;;3.80;;
21297;SDS011;10808;48.010;11.326;2022-08-30T12:53:05;4.23;;;3.83;;
21297;SDS011;10808;48.010;11.326;2022-08-30T12:55:35;4.43;;;3.92;;
21297;SDS011;10808;48.010;11.326;2022-08-30T12:58:32;4.77;;;4.20;;
21297;SDS011;10808;48.010;11.326;2022-08-30T13:03:52;4.85;;;4.20;;
21297;SDS011;10808;48.010;11.326;2022-08-30T13:06:34;5.75;;;4.45;;
21297;SDS011;10808;48.010;11.326;2022-08-30T13:12:14;4.30;;;3.90;;
21297;SDS011;10808;48.010;11.326;2022-08-30T13:14:48;4.45;;;4.00;;
21297;SDS011;10808;48.010;11.326;2022-08-30T13:19:44;6.28;;;4.20;;
21297;SDS011;10808;48.010;11.326;2022-08-30T13:22:30;4.38;;;4.00;;
21297;SDS011;10808;48.010;11.326;2022-08-30T13:24:58;9.15;;;3.90;;
21297;SDS011;10808;48.010;11.326;2022-08-30T13:27:25;4.75;;;4.10;;
21297;SDS011;10808;48.010;11.326;2022-08-30T13:29:53;4.60;;;4.20;;
21297;SDS011;10808;48.010;11.326;2022-08-30T13:32:19;6.20;;;4.20;;
21297;SDS011;10808;48.010;11.326;2022-08-30T13:34:46;4.18;;;3.78;;
21297;SDS011;10808;48.010;11.326;2022-08-30T13:37:22;4.78;;;4.30;;
21297;SDS011;10808;48.010;11.326;2022-08-30T13:39:56;4.60;;;4.20;;
21297;SDS011;10808;48.010;11.326;2022-08-30T13:42:23;4.47;;;4.07;;
21297;SDS011;10808;48.010;11.326;2022-08-30T13:44:49;7.03;;;4.30;;
21297;SDS011;10808;48.010;11.326;2022-08-30T13:47:16;5.68;;;4.18;;
21297;SDS011;10808;48.010;11.326;2022-08-30T13:49:44;4.60;;;4.20;;
21297;SDS011;10808;48.010;11.326;2022-08-30T13:52:12;4.80;;;4.40;;
21297;SDS011;10808;48.010;11.326;2022-08-30T13:54:41;4.63;;;4.22;;
21297;SDS011;10808;48.010;11.326;2022-08-30T13:57:07;4.50;;;4.10;;
21297;SDS011;10808;48.010;11.326;2022-08-30T13:59:33;4.38;;;3.97;;
21297;SDS011;10808;48.010;11.326;2022-08-30T14:02:00;5.53;;;4.30;;
21297;SDS011;10808;48.010;11.326;2022-08-30T14:04:27;4.55;;;4.13;;
21297;SDS011;10808;48.010;11.326;2022-08-30T14:06:53;4.68;;;4.10;;
21297;SDS011;10808;48.010;11.326;2022-08-30T14:09:19;7.28;;;4.47;;
21297;SDS011;10808;48.010;11.326;2022-08-30T14:11:45;5.50;;;4.27;;
21297;SDS011;10808;48.010;11.326;2022-08-30T14:14:11;5.00;;;4.13;;
21297;SDS011;10808;48.010;11.326;2022-08-30T14:16:38;6.95;;;4.80;;
21297;SDS011;10808;48.010;11.326;2022-08-30T14:19:07;5.18;;;4.68;;
21297;SDS011;10808;48.010;11.326;2022-08-30T14:21:34;7.78;;;4.88;;
21297;SDS011;10808;48.010;11.326;2022-08-30T14:24:01;6.50;;;4.57;;
21297;SDS011;10808;48.010;11.326;2022-08-30T14:26:33;5.27;;;4.40;;
21297;SDS011;10808;48.010;11.326;2022-08-30T14:29:01;5.10;;;4.60;;
21297;SDS011;10808;48.010;11.326;2022-08-30T14:31:31;6.80;;;4.60;;
21297;SDS011;10808;48.010;11.326;2022-08-30T14:33:58;5.85;;;4.82;;
21297;SDS011;10808;48.010;11.326;2022-08-30T14:36:25;5.40;;;4.60;;
21297;SDS011;10808;48.010;11.326;2022-08-30T14:38:51;4.95;;;4.50;;
21297;SDS011;10808;48.010;11.326;2022-08-30T14:41:17;6.53;;;4.70;;
21297;SDS011;10808;48.010;11.326;2022-08-30T14:43:43;7.53;;;4.90;;
21297;SDS011;10808;48.010;11.326;2022-08-30T14:46:09;5.10;;;4.60;;
21297;SDS011;10808;48.010;11.326;2022-08-30T14:48:36;4.57;;;4.17;;
21297;SDS011;10808;48.010;11.326;2022-08-30T14:51:10;4.82;;;4.38;;
21297;SDS011;10808;48.010;11.326;2022-08-30T14:53:41;5.72;;;4.40;;
21297;SDS011;10808;48.010;11.326;2022-08-30T14:56:11;6.20;;;4.70;;
21297;SDS011;10808;48.010;11.326;2022-08-30T14:58:39;5.45;;;4.43;;
21297;SDS011;10808;48.010;11.326;2022-08-30T15:01:06;8.93;;;4.73;;
21297;SDS011;10808;48.010;11.326;2022-08-30T15:03:34;6.87;;;4.57;;
21297;SDS011;10808;48.010;11.326;2022-08-30T15:06:02;4.97;;;4.50;;
21297;SDS011;10808;48.010;11.326;2022-08-30T15:08:29;5.75;;;4.60;;
21297;SDS011;10808;48.010;11.326;2022-08-30T15:10:56;5.95;;;4.63;;
21297;SDS011;10808;48.010;11.326;2022-08-30T15:13:23;5.53;;;4.40;;
21297;SDS011;10808;48.010;11.326;2022-08-30T15:15:50;5.30;;;4.80;;
21297;SDS011;10808;48.010;11.326;2022-08-30T15:18:16;7.43;;;4.78;;
21297;SDS011;10808;48.010;11.326;2022-08-30T15:20:46;5.40;;;4.70;;
21297;SDS011;10808;48.010;11.326;2022-08-30T15:23:13;7.20;;;5.05;;
21297;SDS011;10808;48.010;11.326;2022-08-30T15:25:40;5.15;;;4.65;;
21297;SDS011;10808;48.010;11.326;2022-08-30T15:28:07;5.30;;;4.80;;
21297;SDS011;10808;48.010;11.326;2022-08-30T15:30:33;6.90;;;4.53;;
21297;SDS011;10808;48.010;11.326;2022-08-30T15:33:00;5.45;;;4.50;;
21297;SDS011;10808;48.010;11.326;2022-08-30T15:35:27;5.70;;;4.63;;
21297;SDS011;10808;48.010;11.326;2022-08-30T15:37:53;7.40;;;4.70;;
21297;SDS011;10808;48.010;11.326;2022-08-30T15:40:19;4.72;;;4.30;;
21297;SDS011;10808;48.010;11.326;2022-08-30T15:42:45;7.18;;;4.35;;
21297;SDS011;10808;48.010;11.326;2022-08-30T15:45:12;8.82;;;4.32;;
21297;SDS011;10808;48.010;11.326;2022-08-30T15:47:38;5.85;;;4.55;;
21297;SDS011;10808;48.010;11.326;2022-08-30T15:50:04;4.87;;;4.43;;
21297;SDS011;10808;48.010;11.326;2022-08-30T15:52:31;4.88;;;4.45;;
21297;SDS011;10808;48.010;11.326;2022-08-30T15:54:57;6.80;;;4.70;;
21297;SDS011;10808;48.010;11.326;2022-08-30T15:57:24;136.10;;;13.48;;
21297;SDS011;10808;48.010;11.326;2022-08-30T15:59:50;145.32;;;14.45;;
21297;SDS011;10808;48.010;11.326;2022-08-30T16:02:19;42.58;;;6.47;;